This is the latest recevied weather packets stored in our database for station/object KD0RIH. If no packets are shown the sender has not sent any weather packets the latest 1 day(s).
| Time | Temp. | Humidity | Pressure | Rain* | Wind** | Luminosity | Snow |
|---|---|---|---|---|---|---|---|
| 1778104076 | 18.89° C | 24% | 1017.1 hPa | 0 mm | - | 554 W/m² | - |
| 1778102866 | 20° C | 25% | 1017.2 hPa | 0 mm | - | 600 W/m² | - |
| 1778101651 | 20° C | 25% | 1017.4 hPa | 0 mm | - | 656 W/m² | - |
| 1778101045 | 18.33° C | 26% | 1017.3 hPa | 0 mm | - | 678 W/m² | - |
| 1778097710 | 19.44° C | 25% | 1017.9 hPa | 0 mm | - | 734 W/m² | - |
| 1778097407 | 18.89° C | 27% | 1018.1 hPa | 0 mm | - | 712 W/m² | - |
| 1778096801 | 19.44° C | 24% | 1017.9 hPa | 0 mm | - | 846 W/m² | - |
| 1778096195 | 19.44° C | 26% | 1018.1 hPa | 0 mm | - | 604 W/m² | - |
| 1778094677 | 20° C | 24% | 1018.5 hPa | 0 mm | - | 733 W/m² | - |
| 1778093769 | 18.89° C | 26% | 1018.4 hPa | 0 mm | - | 548 W/m² | - |
| 1778093465 | 20° C | 22% | 1018.5 hPa | 0 mm | - | 606 W/m² | - |
| 1778088314 | 16.67° C | 30% | 1019.1 hPa | 0 mm | - | 564 W/m² | - |
| 1778086194 | 19.44° C | 24% | 1018.9 hPa | 0 mm | - | 610 W/m² | - |
| 1778084072 | 19.44° C | 25% | 1018.8 hPa | 0 mm | - | 902 W/m² | - |
| 1778083769 | 18.89° C | 26% | 1018.8 hPa | 0 mm | - | 885 W/m² | - |
| 1778081737 | 16.11° C | 31% | 1018.5 hPa | 0 mm | - | 733 W/m² | - |
| 1778079617 | 15.56° C | 35% | 1018.5 hPa | 0 mm | - | 679 W/m² | - |
| 1778079313 | 15° C | 34% | 1018.3 hPa | 0 mm | - | 506 W/m² | - |
| 1778079011 | 16.11° C | 35% | 1018.3 hPa | 0 mm | - | 549 W/m² | - |
| 1778078405 | 15.56° C | 35% | 1017.9 hPa | 0 mm | - | 481 W/m² | - |
| 1778077498 | 14.44° C | 38% | 1018.1 hPa | 0 mm | - | 465 W/m² | - |
| 1778076592 | 13.33° C | 40% | 1018.3 hPa | 0 mm | - | 348 W/m² | - |
| 1778075985 | 13.33° C | 41% | 1018.1 hPa | 0 mm | - | 297 W/m² | - |
| 1778075378 | 12.22° C | 42% | 1017.8 hPa | 0 mm | - | 297 W/m² | - |
| 1778073560 | 11.67° C | 45% | 1017.5 hPa | 0 mm | - | 187 W/m² | - |
* Rain latest hour (hover to see other rain measurements)
** Current wind speed in m/s (hover to see current wind gust speed)